createdAt,value
2018-12-23T00:00:27.045Z,3.80
2018-12-23T00:02:58.026Z,3.90
2018-12-23T00:05:28.904Z,3.90
2018-12-23T00:07:59.756Z,3.90
2018-12-23T00:10:30.548Z,4.00
2018-12-23T00:13:01.277Z,4.00
2018-12-23T00:15:32.093Z,4.10
2018-12-23T00:18:02.859Z,4.10
2018-12-23T00:20:33.750Z,4.10
2018-12-23T00:23:04.528Z,4.00
2018-12-23T00:25:35.488Z,4.00
2018-12-23T00:28:06.149Z,4.00
2018-12-23T00:30:36.947Z,3.90
2018-12-23T00:33:07.731Z,3.90
2018-12-23T00:35:38.477Z,3.80
2018-12-23T00:38:09.164Z,3.80
2018-12-23T00:40:39.943Z,3.80
2018-12-23T00:43:10.705Z,3.80
2018-12-23T00:45:41.516Z,3.80
2018-12-23T00:48:12.288Z,3.80
2018-12-23T00:50:42.999Z,3.70
2018-12-23T00:53:13.651Z,3.80
2018-12-23T00:55:44.413Z,3.80
2018-12-23T00:58:15.128Z,3.70
2018-12-23T01:00:45.956Z,3.80
2018-12-23T01:03:17.016Z,3.80
2018-12-23T01:05:47.745Z,3.70
2018-12-23T01:08:18.526Z,3.70
2018-12-23T01:10:49.225Z,3.70
2018-12-23T01:13:19.981Z,3.70
2018-12-23T01:15:50.768Z,3.80
2018-12-23T01:18:21.645Z,3.80
2018-12-23T01:20:52.358Z,3.70
2018-12-23T01:23:23.265Z,3.70
2018-12-23T01:25:54.403Z,3.70
2018-12-23T01:28:25.195Z,3.80
2018-12-23T01:30:55.909Z,3.70
2018-12-23T01:33:26.664Z,3.60
2018-12-23T01:35:57.666Z,3.60
2018-12-23T01:38:28.412Z,3.60
2018-12-23T01:40:59.167Z,3.60
2018-12-23T01:43:29.929Z,3.60
2018-12-23T01:46:00.671Z,3.70
2018-12-23T01:48:31.464Z,3.70
2018-12-23T01:51:02.124Z,3.60
2018-12-23T01:53:32.996Z,3.60
2018-12-23T01:56:03.779Z,3.50
2018-12-23T01:58:35.050Z,3.50
2018-12-23T02:01:05.784Z,3.60
2018-12-23T02:03:36.524Z,3.60
2018-12-23T02:06:07.254Z,3.70
2018-12-23T02:08:37.984Z,3.70
2018-12-23T02:11:08.728Z,3.70
2018-12-23T02:13:39.398Z,3.70
2018-12-23T02:16:10.248Z,3.60
2018-12-23T02:18:41.025Z,3.60
2018-12-23T02:21:11.765Z,3.60
2018-12-23T02:23:42.945Z,3.70
2018-12-23T02:26:13.697Z,3.70
2018-12-23T02:28:44.488Z,3.70
2018-12-23T02:31:15.254Z,3.70
2018-12-23T02:33:46.167Z,3.70
2018-12-23T02:36:16.906Z,3.80
2018-12-23T02:38:47.635Z,3.90
2018-12-23T02:41:18.485Z,3.80
2018-12-23T02:43:49.217Z,3.80
2018-12-23T02:46:19.948Z,3.80
2018-12-23T02:48:53.725Z,3.70
2018-12-23T02:51:24.449Z,3.70
2018-12-23T02:53:55.181Z,3.60
2018-12-23T02:56:25.870Z,3.60
2018-12-23T02:58:56.841Z,3.70
2018-12-23T03:01:27.606Z,3.70
2018-12-23T03:03:58.253Z,3.60
2018-12-23T03:06:28.973Z,3.50
2018-12-23T03:08:59.684Z,3.50
2018-12-23T03:11:30.404Z,3.40
2018-12-23T03:14:01.184Z,3.20
2018-12-23T03:16:31.905Z,3.30
2018-12-23T03:19:02.625Z,3.20
2018-12-23T03:21:33.417Z,3.30
2018-12-23T03:24:04.189Z,3.40
2018-12-23T03:26:34.917Z,3.40
2018-12-23T03:29:05.753Z,3.40
2018-12-23T03:31:36.464Z,3.30
2018-12-23T03:34:07.211Z,3.30
2018-12-23T03:36:37.987Z,3.30
2018-12-23T03:39:08.948Z,3.30
2018-12-23T03:41:39.685Z,3.40
2018-12-23T03:44:10.840Z,3.40
2018-12-23T03:46:41.503Z,3.40
2018-12-23T03:49:12.224Z,3.40
2018-12-23T03:51:43.005Z,3.40
2018-12-23T03:54:13.756Z,3.40
2018-12-23T03:56:44.641Z,3.50
2018-12-23T03:59:15.632Z,3.60
2018-12-23T04:01:47.161Z,3.40
2018-12-23T04:04:17.905Z,3.40
2018-12-23T04:06:48.628Z,3.40
2018-12-23T04:09:19.474Z,3.30
2018-12-23T04:11:50.202Z,3.40
2018-12-23T04:14:20.991Z,3.50
2018-12-23T04:16:51.685Z,3.40
2018-12-23T04:19:22.446Z,3.40
2018-12-23T04:21:53.824Z,3.30
2018-12-23T04:24:24.564Z,3.40
2018-12-23T04:26:55.257Z,3.40
2018-12-23T04:29:26.008Z,3.30
2018-12-23T04:31:56.852Z,3.30
2018-12-23T04:34:27.542Z,3.40
2018-12-23T04:36:58.324Z,3.50
2018-12-23T04:39:29.042Z,3.50
2018-12-23T04:41:59.770Z,3.60
2018-12-23T04:44:30.560Z,3.60
2018-12-23T04:47:01.267Z,3.60
2018-12-23T04:49:31.915Z,3.50
2018-12-23T04:52:02.695Z,3.50
2018-12-23T04:54:33.606Z,3.40
2018-12-23T04:57:04.419Z,3.40
2018-12-23T04:59:35.176Z,3.40
2018-12-23T05:02:05.966Z,3.40
2018-12-23T05:04:36.747Z,3.40
2018-12-23T05:07:07.972Z,3.40
2018-12-23T05:09:39.039Z,3.40
2018-12-23T05:12:09.829Z,3.50
2018-12-23T05:14:40.604Z,3.50
2018-12-23T05:17:11.285Z,3.40
2018-12-23T05:19:48.646Z,3.40
2018-12-23T05:22:19.400Z,3.40
2018-12-23T05:24:50.167Z,3.40
2018-12-23T05:27:20.975Z,3.40
2018-12-23T05:29:52.029Z,3.40
2018-12-23T05:32:22.767Z,3.40
2018-12-23T05:34:53.548Z,3.40
2018-12-23T05:37:24.345Z,3.40
2018-12-23T05:39:55.158Z,3.40
2018-12-23T05:42:25.970Z,3.40
2018-12-23T05:44:56.748Z,3.40
2018-12-23T05:47:27.467Z,3.40
2018-12-23T05:49:58.205Z,3.60
2018-12-23T05:52:28.916Z,3.80
2018-12-23T05:54:59.665Z,3.80
2018-12-23T05:57:30.346Z,3.70
2018-12-23T06:00:01.085Z,3.80
2018-12-23T06:02:31.864Z,3.90
2018-12-23T06:05:02.638Z,3.90
2018-12-23T06:07:33.365Z,3.80
2018-12-23T06:10:04.065Z,3.70
2018-12-23T06:12:34.827Z,3.80
2018-12-23T06:15:06.049Z,3.70
2018-12-23T06:17:36.840Z,3.60
2018-12-23T06:20:08.242Z,3.70
2018-12-23T06:22:39.151Z,3.70
2018-12-23T06:25:09.875Z,3.70
2018-12-23T06:27:40.626Z,3.80
2018-12-23T06:30:11.367Z,3.80
2018-12-23T06:32:42.067Z,3.70
2018-12-23T06:35:13.339Z,3.80
2018-12-23T06:37:44.121Z,3.80
2018-12-23T06:40:15.561Z,3.80
2018-12-23T06:42:46.341Z,3.80
2018-12-23T06:45:17.368Z,3.90
2018-12-23T06:47:48.251Z,3.80
2018-12-23T06:50:19.816Z,3.60
2018-12-23T06:52:50.524Z,3.50
2018-12-23T06:55:21.333Z,3.40
2018-12-23T06:57:52.140Z,3.40
2018-12-23T07:00:22.898Z,3.40
2018-12-23T07:02:53.621Z,3.40
2018-12-23T07:05:24.394Z,3.40
2018-12-23T07:07:55.116Z,3.30
2018-12-23T07:10:25.856Z,3.30
2018-12-23T07:12:56.593Z,3.20
2018-12-23T07:15:27.364Z,3.30
2018-12-23T07:17:58.146Z,3.20
2018-12-23T07:20:28.930Z,3.20
2018-12-23T07:22:59.644Z,3.30
2018-12-23T07:25:30.438Z,3.30
2018-12-23T07:28:01.124Z,3.30
2018-12-23T07:30:31.925Z,3.40
2018-12-23T07:33:02.692Z,3.40
2018-12-23T07:35:33.492Z,3.40
2018-12-23T07:38:05.197Z,3.40
2018-12-23T07:40:36.281Z,3.40
2018-12-23T07:43:12.356Z,3.40
2018-12-23T07:45:43.085Z,3.40
2018-12-23T07:48:13.864Z,3.50
2018-12-23T07:50:44.824Z,3.50
2018-12-23T07:53:15.561Z,3.50
2018-12-23T07:55:46.428Z,3.60
2018-12-23T07:58:17.165Z,3.60
2018-12-23T08:00:47.880Z,3.50
2018-12-23T08:03:18.621Z,3.50
2018-12-23T08:05:49.465Z,3.50
2018-12-23T08:08:20.199Z,3.40
2018-12-23T08:10:52.034Z,3.40
2018-12-23T08:13:23.587Z,3.50
2018-12-23T08:15:55.421Z,3.40
2018-12-23T08:18:27.960Z,3.40
2018-12-23T08:21:00.826Z,3.40
2018-12-23T08:23:32.964Z,3.50
2018-12-23T08:26:03.718Z,3.50
2018-12-23T08:28:34.625Z,3.50
2018-12-23T08:31:05.378Z,3.50
2018-12-23T08:33:36.292Z,3.60
2018-12-23T08:36:07.079Z,3.60
2018-12-23T08:38:37.869Z,3.70
2018-12-23T08:41:08.634Z,3.80
2018-12-23T08:43:39.641Z,3.80
2018-12-23T08:46:10.552Z,3.90
2018-12-23T08:48:41.343Z,3.90
2018-12-23T08:51:12.049Z,4.00
2018-12-23T08:53:46.098Z,4.10
2018-12-23T08:56:17.089Z,4.20
2018-12-23T08:58:47.891Z,4.20
2018-12-23T09:01:18.643Z,4.20
2018-12-23T09:03:49.446Z,4.20
2018-12-23T09:06:25.253Z,4.30
2018-12-23T09:08:56.302Z,4.30
2018-12-23T09:11:27.392Z,4.40
2018-12-23T09:14:02.835Z,4.50
2018-12-23T09:16:33.563Z,4.60
2018-12-23T09:19:04.343Z,4.60
2018-12-23T09:21:35.100Z,4.70
2018-12-23T09:24:06.177Z,4.60
2018-12-23T09:26:43.102Z,4.60
2018-12-23T09:29:14.062Z,4.70
2018-12-23T09:31:44.761Z,4.70
2018-12-23T09:34:15.537Z,4.80
2018-12-23T09:36:47.798Z,4.80
2018-12-23T09:39:18.788Z,4.80
2018-12-23T09:41:49.600Z,4.90
2018-12-23T09:44:20.421Z,4.90
2018-12-23T09:46:51.190Z,5.00
2018-12-23T09:49:22.422Z,5.00
2018-12-23T09:51:53.245Z,5.00
2018-12-23T09:54:24.113Z,5.00
2018-12-23T09:56:54.993Z,5.10
2018-12-23T09:59:25.806Z,5.10
2018-12-23T10:02:01.670Z,5.10
2018-12-23T10:04:32.547Z,5.20
2018-12-23T10:07:03.280Z,5.20
2018-12-23T10:09:34.123Z,5.30
2018-12-23T10:12:04.898Z,5.20
2018-12-23T10:14:35.876Z,5.30
2018-12-23T10:17:06.861Z,5.30
2018-12-23T10:19:37.750Z,5.20
2018-12-23T10:22:08.616Z,5.20
2018-12-23T10:24:39.441Z,5.20
2018-12-23T10:27:10.173Z,5.30
2018-12-23T10:29:41.115Z,5.40
2018-12-23T10:32:11.874Z,5.40
2018-12-23T10:34:42.723Z,5.50
2018-12-23T10:37:13.476Z,5.50
2018-12-23T10:39:44.172Z,5.30
2018-12-23T10:42:14.921Z,5.20
2018-12-23T10:44:45.755Z,5.20
2018-12-23T10:47:16.521Z,5.20
2018-12-23T10:49:47.581Z,5.20
2018-12-23T10:52:18.401Z,5.10
2018-12-23T10:54:49.309Z,5.20
2018-12-23T10:57:20.070Z,5.20
2018-12-23T10:59:51.126Z,5.20
2018-12-23T11:02:22.183Z,5.20
2018-12-23T11:04:56.812Z,5.20
2018-12-23T11:07:27.653Z,5.20
2018-12-23T11:10:02.319Z,5.30
2018-12-23T11:12:32.309Z,5.30
2018-12-23T11:15:04.466Z,5.30
2018-12-23T11:17:35.287Z,5.30
2018-12-23T11:20:09.837Z,5.20
2018-12-23T11:22:40.622Z,5.20
2018-12-23T11:25:11.381Z,5.30
2018-12-23T11:27:42.222Z,5.30
2018-12-23T11:30:13.159Z,5.30
2018-12-23T11:32:43.883Z,5.20
2018-12-23T11:35:16.387Z,5.20
2018-12-23T11:37:47.166Z,5.30
2018-12-23T11:40:17.913Z,5.30
2018-12-23T11:42:50.177Z,5.40
2018-12-23T11:45:21.201Z,5.40
2018-12-23T11:47:51.983Z,5.60
2018-12-23T11:50:22.761Z,5.50
2018-12-23T11:52:54.058Z,5.50
2018-12-23T11:55:25.756Z,5.40
2018-12-23T11:57:56.968Z,5.50
2018-12-23T12:00:27.692Z,5.50
2018-12-23T12:02:58.548Z,5.60
2018-12-23T12:05:29.521Z,5.60
2018-12-23T12:08:00.345Z,5.70
2018-12-23T12:10:31.569Z,5.70
2018-12-23T12:13:02.423Z,5.70
2018-12-23T12:15:33.365Z,5.60
2018-12-23T12:18:04.087Z,5.60
2018-12-23T12:20:37.119Z,5.60
2018-12-23T12:23:08.122Z,5.60
2018-12-23T12:25:38.870Z,5.80
2018-12-23T12:28:09.597Z,5.80
2018-12-23T12:30:40.470Z,5.90
2018-12-23T12:33:11.244Z,5.80
2018-12-23T12:35:41.920Z,5.80
2018-12-23T12:38:12.844Z,6.00
2018-12-23T12:40:43.745Z,6.10
2018-12-23T12:43:15.165Z,6.20
2018-12-23T12:45:45.974Z,6.10
2018-12-23T12:48:16.808Z,6.10
2018-12-23T12:50:48.782Z,6.20
2018-12-23T12:53:20.349Z,6.20
2018-12-23T12:55:51.824Z,6.20
2018-12-23T12:58:22.621Z,6.20
2018-12-23T13:00:55.392Z,6.20
2018-12-23T13:03:26.492Z,6.10
2018-12-23T13:05:59.204Z,6.10
2018-12-23T13:08:30.275Z,6.00
2018-12-23T13:11:02.000Z,5.90
2018-12-23T13:13:33.011Z,5.90
2018-12-23T13:16:05.725Z,5.80
2018-12-23T13:18:37.614Z,5.80
2018-12-23T13:21:09.585Z,5.80
2018-12-23T13:23:42.259Z,5.80
2018-12-23T13:26:16.445Z,5.90
2018-12-23T13:28:47.632Z,5.90
2018-12-23T13:31:18.618Z,5.80
2018-12-23T13:33:49.880Z,5.80
2018-12-23T13:36:24.225Z,5.80
2018-12-23T13:38:55.919Z,5.80
2018-12-23T13:42:03.516Z,5.80
2018-12-23T13:45:14.278Z,5.80
2018-12-23T13:57:59.299Z,5.70
2018-12-23T14:00:51.672Z,5.70
2018-12-23T14:03:46.161Z,5.60
2018-12-23T14:08:49.826Z,5.60
2018-12-23T14:11:40.151Z,5.50
2018-12-23T14:14:11.132Z,5.50
2018-12-23T14:16:43.047Z,5.50
2018-12-23T14:19:14.006Z,5.50
2018-12-23T14:21:46.248Z,5.40
2018-12-23T14:24:20.324Z,5.40
2018-12-23T14:26:52.218Z,5.40
2018-12-23T14:29:23.344Z,5.40
2018-12-23T14:31:55.546Z,5.40
2018-12-23T14:34:26.949Z,5.30
2018-12-23T14:36:58.069Z,5.30
2018-12-23T14:39:29.025Z,5.30
2018-12-23T14:42:01.766Z,5.30
2018-12-23T14:44:32.806Z,5.30
2018-12-23T14:47:03.968Z,5.30
2018-12-23T14:49:36.703Z,5.30
2018-12-23T14:52:09.244Z,5.20
2018-12-23T14:54:40.255Z,5.20
2018-12-23T14:57:14.928Z,5.20
2018-12-23T14:59:50.554Z,5.20
2018-12-23T15:02:23.514Z,5.10
2018-12-23T15:04:54.913Z,5.10
2018-12-23T15:07:26.806Z,5.10
2018-12-23T15:10:23.551Z,5.10
2018-12-23T15:13:07.986Z,5.00
2018-12-23T15:15:39.380Z,4.90
2018-12-23T15:18:15.958Z,4.80
2018-12-23T15:20:51.868Z,4.80
2018-12-23T15:23:31.912Z,4.90
2018-12-23T15:26:08.480Z,4.90
2018-12-23T15:28:48.556Z,4.90
2018-12-23T15:31:25.807Z,4.90
2018-12-23T15:34:01.501Z,4.80
2018-12-23T15:41:53.631Z,4.80
2018-12-23T15:49:01.449Z,4.80
2018-12-23T15:52:04.519Z,4.80
2018-12-23T16:02:24.483Z,4.90
2018-12-23T16:05:09.206Z,4.80
2018-12-23T16:11:03.467Z,4.80
2018-12-23T16:14:13.930Z,4.80
2018-12-23T16:17:23.900Z,4.90
2018-12-23T16:20:36.604Z,5.10
2018-12-23T16:26:42.505Z,5.30
2018-12-23T16:32:56.080Z,5.30
2018-12-23T16:35:48.753Z,5.30
2018-12-23T16:38:51.346Z,5.40
2018-12-23T16:41:44.395Z,5.40
2018-12-23T16:44:47.617Z,5.40
2018-12-23T16:47:41.739Z,5.40
2018-12-23T16:54:37.579Z,5.30
2018-12-23T16:57:40.913Z,5.50
2018-12-23T17:04:01.384Z,5.60
2018-12-23T17:10:52.691Z,5.70
2018-12-23T17:13:58.380Z,5.60
2018-12-23T17:20:34.459Z,5.60
2018-12-23T17:23:46.240Z,5.60
2018-12-23T17:26:37.520Z,5.60
2018-12-23T17:34:10.510Z,5.60
2018-12-23T17:36:34.925Z,5.60
2018-12-23T17:39:42.423Z,5.70
2018-12-23T17:43:15.992Z,5.60
2018-12-23T17:46:21.473Z,5.60
2018-12-23T17:56:26.891Z,5.70
2018-12-23T18:03:25.282Z,5.70
2018-12-23T18:06:31.370Z,5.80
2018-12-23T18:14:09.353Z,5.40
2018-12-23T18:17:18.447Z,5.20
2018-12-23T18:20:51.696Z,5.00
2018-12-23T18:27:29.448Z,4.70
2018-12-23T18:34:50.407Z,4.70
2018-12-23T18:44:38.834Z,4.80
2018-12-23T18:50:14.297Z,4.90
2018-12-23T18:53:22.317Z,5.00
2018-12-23T18:56:13.589Z,5.00
2018-12-23T18:59:05.452Z,5.00
2018-12-23T19:02:13.102Z,5.00
2018-12-23T19:05:16.669Z,4.90
2018-12-23T19:08:22.588Z,4.90
2018-12-23T19:11:56.022Z,4.80
2018-12-23T19:15:25.060Z,4.80
2018-12-23T19:18:48.402Z,4.80
2018-12-23T19:22:13.365Z,4.80
2018-12-23T19:26:04.156Z,4.90
2018-12-23T19:29:34.167Z,4.90
2018-12-23T19:33:29.269Z,5.00
2018-12-23T19:40:24.052Z,5.30
2018-12-23T19:47:54.592Z,5.20
2018-12-23T19:51:18.793Z,5.30
2018-12-23T19:55:07.081Z,5.30
2018-12-23T19:58:31.270Z,5.30
2018-12-23T20:02:00.180Z,5.30
2018-12-23T20:08:16.493Z,5.40
2018-12-23T20:15:54.253Z,5.30
2018-12-23T20:19:23.082Z,5.30
2018-12-23T20:22:24.872Z,5.30
2018-12-23T20:25:52.406Z,5.30
2018-12-23T20:29:15.671Z,5.10
2018-12-23T20:32:41.505Z,5.10
2018-12-23T20:36:04.658Z,5.00
2018-12-23T20:39:36.717Z,5.00
2018-12-23T20:43:13.095Z,5.00
2018-12-23T20:46:35.721Z,5.00
2018-12-23T20:50:23.873Z,4.90
2018-12-23T20:55:50.851Z,5.00
2018-12-23T20:58:05.313Z,5.10
2018-12-23T21:01:24.311Z,5.10
2018-12-23T21:04:53.281Z,5.20
2018-12-23T21:08:18.141Z,5.20
2018-12-23T21:12:06.253Z,5.30
2018-12-23T21:15:33.179Z,5.40
2018-12-23T21:19:21.170Z,5.40
2018-12-23T21:22:50.200Z,5.50
2018-12-23T21:26:19.695Z,5.50
2018-12-23T21:29:43.940Z,5.50
2018-12-23T21:33:13.119Z,5.50
2018-12-23T21:36:41.080Z,5.50
2018-12-23T21:39:56.052Z,5.60
2018-12-23T21:43:19.051Z,5.60
2018-12-23T21:46:43.763Z,5.60
2018-12-23T21:50:26.840Z,5.60
2018-12-23T21:53:48.273Z,5.60
2018-12-23T21:57:36.320Z,5.60
2018-12-23T22:00:58.093Z,5.60
2018-12-23T22:04:26.941Z,5.70
2018-12-23T22:07:56.696Z,5.70
2018-12-23T22:11:32.932Z,5.70
2018-12-23T22:14:37.079Z,5.70
2018-12-23T22:17:40.313Z,5.80
2018-12-23T22:20:31.451Z,5.80
2018-12-23T22:23:33.831Z,5.80
2018-12-23T22:26:25.871Z,5.90
2018-12-23T22:29:16.712Z,5.80
2018-12-23T22:32:26.932Z,5.80
2018-12-23T22:35:29.853Z,5.80
2018-12-23T22:38:21.918Z,5.80
2018-12-23T22:41:15.873Z,5.80
2018-12-23T22:44:25.888Z,5.90
2018-12-23T22:47:16.739Z,5.90
2018-12-23T22:50:27.773Z,5.90
2018-12-23T22:53:30.312Z,5.90
2018-12-23T23:05:20.294Z,5.90
2018-12-23T23:11:34.353Z,5.90
2018-12-23T23:15:04.712Z,5.80
2018-12-23T23:18:07.411Z,5.80
2018-12-23T23:21:17.392Z,5.80
2018-12-23T23:24:20.333Z,5.80
2018-12-23T23:27:14.460Z,5.80
2018-12-23T23:30:17.171Z,5.70
2018-12-23T23:33:10.916Z,5.60
2018-12-23T23:36:13.647Z,5.60
2018-12-23T23:39:23.600Z,5.60
2018-12-23T23:42:26.353Z,5.50
2018-12-23T23:45:17.551Z,5.60
2018-12-23T23:48:27.540Z,5.60
2018-12-23T23:51:29.724Z,5.60
2018-12-23T23:54:23.832Z,5.60
2018-12-23T23:57:14.721Z,5.70
